createdAt,value
2023-04-27T00:01:11.390Z,19.40
2023-04-27T00:03:39.210Z,19.40
2023-04-27T00:06:06.279Z,19.30
2023-04-27T00:08:32.982Z,19.30
2023-04-27T00:11:00.491Z,19.30
2023-04-27T00:13:27.414Z,19.30
2023-04-27T00:15:54.287Z,19.30
2023-04-27T00:18:20.895Z,19.30
2023-04-27T00:20:47.751Z,19.30
2023-04-27T00:23:14.328Z,19.30
2023-04-27T00:25:41.023Z,19.30
2023-04-27T00:28:07.664Z,19.30
2023-04-27T00:30:34.266Z,19.30
2023-04-27T00:33:00.970Z,19.30
2023-04-27T00:35:27.716Z,19.30
2023-04-27T00:37:55.137Z,19.30
2023-04-27T00:40:21.854Z,19.30
2023-04-27T00:42:48.463Z,19.30
2023-04-27T00:45:15.072Z,19.30
2023-04-27T00:47:42.470Z,19.20
2023-04-27T00:50:10.494Z,19.30
2023-04-27T00:52:37.789Z,19.20
2023-04-27T00:55:05.344Z,19.30
2023-04-27T00:57:33.451Z,19.30
2023-04-27T01:00:01.410Z,19.30
2023-04-27T01:02:29.258Z,19.20
2023-04-27T01:04:56.299Z,19.20
2023-04-27T01:07:26.651Z,19.20
2023-04-27T01:09:53.431Z,19.20
2023-04-27T01:12:20.129Z,19.20
2023-04-27T01:14:46.888Z,19.20
2023-04-27T01:17:14.117Z,19.20
2023-04-27T01:19:41.069Z,19.20
2023-04-27T01:22:08.147Z,19.30
2023-04-27T01:24:34.984Z,19.20
2023-04-27T01:27:02.477Z,19.20
2023-04-27T01:29:29.147Z,19.20
2023-04-27T01:31:55.743Z,19.20
2023-04-27T01:34:22.335Z,19.20
2023-04-27T01:36:48.992Z,19.20
2023-04-27T01:39:16.263Z,19.20
2023-04-27T01:41:45.009Z,19.20
2023-04-27T01:44:11.985Z,19.20
2023-04-27T01:46:38.649Z,19.20
2023-04-27T01:49:05.759Z,19.20
2023-04-27T01:51:32.775Z,19.20
2023-04-27T01:53:59.470Z,19.20
2023-04-27T01:56:26.120Z,19.20
2023-04-27T01:58:53.491Z,19.20
2023-04-27T02:01:21.005Z,19.20
2023-04-27T02:03:47.873Z,19.10
2023-04-27T02:06:14.632Z,19.20
2023-04-27T02:08:41.306Z,19.20
2023-04-27T02:11:07.886Z,19.20
2023-04-27T02:13:34.499Z,19.10
2023-04-27T02:16:03.220Z,19.10
2023-04-27T02:18:30.377Z,19.20
2023-04-27T02:20:57.197Z,19.10
2023-04-27T02:23:24.017Z,19.10
2023-04-27T02:25:51.278Z,19.10
2023-04-27T02:28:17.991Z,19.10
2023-04-27T02:30:45.111Z,19.10
2023-04-27T02:33:11.808Z,19.10
2023-04-27T02:35:38.536Z,19.10
2023-04-27T02:38:05.195Z,19.10
2023-04-27T02:40:31.823Z,19.10
2023-04-27T02:42:58.471Z,19.10
2023-04-27T02:45:25.179Z,19.10
2023-04-27T02:47:52.098Z,19.10
2023-04-27T02:50:18.784Z,19.10
2023-04-27T02:52:45.375Z,19.10
2023-04-27T02:55:12.278Z,19.10
2023-04-27T02:57:38.916Z,19.10
2023-04-27T03:00:06.943Z,19.10
2023-04-27T03:02:33.745Z,19.10
2023-04-27T03:05:00.700Z,19.10
2023-04-27T03:07:27.357Z,19.10
2023-04-27T03:09:53.974Z,19.10
2023-04-27T03:12:20.683Z,19.10
2023-04-27T03:14:47.283Z,19.10
2023-04-27T03:17:13.888Z,19.10
2023-04-27T03:19:41.141Z,19.00
2023-04-27T03:22:07.761Z,19.00
2023-04-27T03:24:34.861Z,19.00
2023-04-27T03:27:02.882Z,19.00
2023-04-27T03:29:29.488Z,19.00
2023-04-27T03:31:56.245Z,19.00
2023-04-27T03:34:23.432Z,18.70
2023-04-27T03:36:50.818Z,19.00
2023-04-27T03:39:17.512Z,19.00
2023-04-27T03:41:44.101Z,19.00
2023-04-27T03:44:10.916Z,19.00
2023-04-27T03:46:37.504Z,19.00
2023-04-27T03:49:04.124Z,19.00
2023-04-27T03:51:33.039Z,19.00
2023-04-27T03:54:00.170Z,19.00
2023-04-27T03:56:26.814Z,19.00
2023-04-27T03:58:53.539Z,19.00
2023-04-27T04:01:21.772Z,19.00
2023-04-27T04:03:48.762Z,19.00
2023-04-27T04:06:15.608Z,19.00
2023-04-27T04:08:42.337Z,19.00
2023-04-27T04:11:08.928Z,19.00
2023-04-27T04:13:36.485Z,19.00
2023-04-27T04:16:08.078Z,19.00
2023-04-27T04:18:35.137Z,19.00
2023-04-27T04:21:02.042Z,19.00
2023-04-27T04:23:29.229Z,19.00
2023-04-27T04:25:58.894Z,19.10
2023-04-27T04:28:25.723Z,19.00
2023-04-27T04:30:52.398Z,19.00
2023-04-27T04:33:19.416Z,19.10
2023-04-27T04:35:46.877Z,19.10
2023-04-27T04:38:13.554Z,19.00
2023-04-27T04:40:42.698Z,19.10
2023-04-27T04:43:11.205Z,19.10
2023-04-27T04:45:37.851Z,19.10
2023-04-27T04:48:04.711Z,19.10
2023-04-27T04:50:31.339Z,19.10
2023-04-27T04:52:58.038Z,19.10
2023-04-27T04:55:27.464Z,19.10
2023-04-27T04:57:54.212Z,19.10
2023-04-27T05:00:22.276Z,19.10
2023-04-27T05:02:49.076Z,19.10
2023-04-27T05:05:16.059Z,19.10
2023-04-27T05:07:43.092Z,19.10
2023-04-27T05:10:09.840Z,19.10
2023-04-27T05:12:36.462Z,19.20
2023-04-27T05:15:03.847Z,19.20
2023-04-27T05:17:30.595Z,19.20
2023-04-27T05:19:58.132Z,19.20
2023-04-27T05:22:24.972Z,19.30
2023-04-27T05:24:51.887Z,19.30
2023-04-27T05:27:18.602Z,19.40
2023-04-27T05:29:45.232Z,19.50
2023-04-27T05:32:11.905Z,19.50
2023-04-27T05:34:38.638Z,19.50
2023-04-27T05:37:05.245Z,19.50
2023-04-27T05:39:31.938Z,19.50
2023-04-27T05:41:58.781Z,19.60
2023-04-27T05:44:28.327Z,19.60
2023-04-27T05:46:56.118Z,19.60
2023-04-27T05:49:23.054Z,19.60
2023-04-27T05:51:49.719Z,19.50
2023-04-27T05:54:16.590Z,19.60
2023-04-27T05:56:43.277Z,19.50
2023-04-27T05:59:10.182Z,19.60
2023-04-27T06:01:36.984Z,19.60
2023-04-27T06:04:04.229Z,19.70
2023-04-27T06:06:32.856Z,19.70
2023-04-27T06:08:59.587Z,19.70
2023-04-27T06:11:26.660Z,19.70
2023-04-27T06:13:53.315Z,19.80
2023-04-27T06:16:21.133Z,19.80
2023-04-27T06:18:49.793Z,19.80
2023-04-27T06:21:16.544Z,19.80
2023-04-27T06:23:43.113Z,19.80
2023-04-27T06:26:09.797Z,19.80
2023-04-27T06:28:36.504Z,19.80
2023-04-27T06:31:03.300Z,19.90
2023-04-27T06:33:29.907Z,19.90
2023-04-27T06:35:56.517Z,19.90
2023-04-27T06:38:23.393Z,19.90
2023-04-27T06:40:53.250Z,19.90
2023-04-27T06:43:19.982Z,19.90
2023-04-27T06:45:46.713Z,19.90
2023-04-27T06:48:13.523Z,19.90
2023-04-27T06:50:40.448Z,19.90
2023-04-27T06:53:07.096Z,19.90
2023-04-27T06:55:33.929Z,19.90
2023-04-27T06:58:00.832Z,19.90
2023-04-27T07:00:27.555Z,19.90
2023-04-27T07:02:54.419Z,20.00
2023-04-27T07:05:21.204Z,20.00
2023-04-27T07:07:47.839Z,20.00
2023-04-27T07:10:14.440Z,20.00
2023-04-27T07:12:42.595Z,20.00
2023-04-27T07:15:09.865Z,20.00
2023-04-27T07:17:36.752Z,20.00
2023-04-27T07:20:06.950Z,20.00
2023-04-27T07:22:33.941Z,20.00
2023-04-27T07:25:00.648Z,20.00
2023-04-27T07:27:27.387Z,20.10
2023-04-27T07:29:54.698Z,20.10
2023-04-27T07:32:22.502Z,20.00
2023-04-27T07:34:54.201Z,20.00
2023-04-27T07:37:21.807Z,20.00
2023-04-27T07:39:54.605Z,19.90
2023-04-27T07:42:24.963Z,20.00
2023-04-27T07:44:52.374Z,20.00
2023-04-27T07:47:19.132Z,20.10
2023-04-27T07:49:46.375Z,20.10
2023-04-27T07:52:13.025Z,20.10
2023-04-27T07:54:40.096Z,20.10
2023-04-27T07:57:11.492Z,20.00
2023-04-27T07:59:38.965Z,20.10
2023-04-27T08:02:18.555Z,20.10
2023-04-27T08:04:47.353Z,20.00
2023-04-27T08:07:16.405Z,20.00
2023-04-27T08:09:43.215Z,20.10
2023-04-27T08:12:09.816Z,20.10
2023-04-27T08:14:36.555Z,20.10
2023-04-27T08:17:03.604Z,20.10
2023-04-27T08:19:30.391Z,20.20
2023-04-27T08:21:56.996Z,20.10
2023-04-27T08:24:23.746Z,20.20
2023-04-27T08:26:50.562Z,20.20
2023-04-27T08:29:27.182Z,20.20
2023-04-27T08:31:56.760Z,20.20
2023-04-27T08:34:23.866Z,20.20
2023-04-27T08:36:50.616Z,20.20
2023-04-27T08:39:17.947Z,20.20
2023-04-27T08:41:44.630Z,20.20
2023-04-27T08:44:11.259Z,20.20
2023-04-27T08:46:38.424Z,20.20
2023-04-27T08:49:07.096Z,20.20
2023-04-27T08:51:34.643Z,20.20
2023-04-27T08:54:03.744Z,20.20
2023-04-27T08:56:30.831Z,20.20
2023-04-27T08:58:58.441Z,20.20
2023-04-27T09:01:27.270Z,20.20
2023-04-27T09:04:01.897Z,20.20
2023-04-27T09:06:33.345Z,20.20
2023-04-27T09:09:00.858Z,20.20
2023-04-27T09:11:39.571Z,20.00
2023-04-27T09:14:18.193Z,20.20
2023-04-27T09:16:45.099Z,20.20
2023-04-27T09:19:12.199Z,20.20
2023-04-27T09:21:38.986Z,20.10
2023-04-27T09:24:12.942Z,20.10
2023-04-27T09:26:42.521Z,20.20
2023-04-27T09:29:09.314Z,20.20
2023-04-27T09:31:36.561Z,20.20
2023-04-27T09:34:04.030Z,20.20
2023-04-27T09:36:33.046Z,20.20
2023-04-27T09:39:04.567Z,20.30
2023-04-27T09:41:33.146Z,20.30
2023-04-27T09:44:00.735Z,20.30
2023-04-27T09:46:29.035Z,20.30
2023-04-27T09:48:56.473Z,20.20
2023-04-27T09:51:23.084Z,20.30
2023-04-27T09:53:52.704Z,20.30
2023-04-27T09:56:37.649Z,20.30
2023-04-27T09:59:10.171Z,20.30
2023-04-27T10:01:46.256Z,20.30
2023-04-27T10:04:27.940Z,20.30
2023-04-27T10:06:59.902Z,20.30
2023-04-27T10:09:37.122Z,20.30
2023-04-27T10:12:27.651Z,20.30
2023-04-27T10:15:11.775Z,20.30
2023-04-27T10:17:38.405Z,20.30
2023-04-27T10:20:12.166Z,20.30
2023-04-27T10:22:52.477Z,20.30
2023-04-27T10:25:24.627Z,20.30
2023-04-27T10:27:59.120Z,20.30
2023-04-27T10:30:31.183Z,20.30
2023-04-27T10:33:05.859Z,20.30
2023-04-27T10:35:37.278Z,20.30
2023-04-27T10:38:11.056Z,20.30
2023-04-27T10:40:38.946Z,20.20
2023-04-27T10:43:15.119Z,20.20
2023-04-27T10:45:43.178Z,20.20
2023-04-27T10:48:14.171Z,20.20
2023-04-27T10:50:41.603Z,20.20
2023-04-27T10:53:08.571Z,20.20
2023-04-27T10:55:35.992Z,20.20
2023-04-27T10:58:04.156Z,20.20
2023-04-27T11:00:37.450Z,20.20
2023-04-27T11:03:19.826Z,20.20
2023-04-27T11:05:48.895Z,20.20
2023-04-27T11:08:17.441Z,20.20
2023-04-27T11:10:50.143Z,20.20
2023-04-27T11:13:21.812Z,20.20
2023-04-27T11:15:51.188Z,20.20
2023-04-27T11:18:20.204Z,20.20
2023-04-27T11:20:54.893Z,20.20
2023-04-27T11:23:41.185Z,20.20
2023-04-27T11:26:15.912Z,20.30
2023-04-27T11:28:57.798Z,20.30
2023-04-27T11:31:25.302Z,20.30
2023-04-27T11:33:52.163Z,20.40
2023-04-27T11:36:21.076Z,20.40
2023-04-27T11:38:47.975Z,20.40
2023-04-27T11:41:15.716Z,20.30
2023-04-27T11:43:46.122Z,20.40
2023-04-27T11:46:13.238Z,20.40
2023-04-27T11:48:40.658Z,20.40
2023-04-27T11:51:10.121Z,20.40
2023-04-27T11:53:39.169Z,20.50
2023-04-27T11:56:10.515Z,20.40
2023-04-27T11:58:39.036Z,20.40
2023-04-27T12:01:06.627Z,20.40
2023-04-27T12:03:46.920Z,20.40
2023-04-27T12:06:31.614Z,20.30
2023-04-27T12:08:59.465Z,20.30
2023-04-27T12:11:27.654Z,20.30
2023-04-27T12:13:55.187Z,20.40
2023-04-27T12:16:22.525Z,20.40
2023-04-27T12:18:52.447Z,20.40
2023-04-27T12:21:19.181Z,20.40
2023-04-27T12:23:45.945Z,20.40
2023-04-27T12:26:14.903Z,20.40
2023-04-27T12:28:42.065Z,20.40
2023-04-27T12:31:08.807Z,20.40
2023-04-27T12:33:35.516Z,20.40
2023-04-27T12:36:02.153Z,20.40
2023-04-27T12:38:29.166Z,20.40
2023-04-27T12:40:56.255Z,20.40
2023-04-27T12:43:22.906Z,20.40
2023-04-27T12:45:49.587Z,20.50
2023-04-27T12:48:17.595Z,20.50
2023-04-27T12:50:44.602Z,20.10
2023-04-27T12:53:11.454Z,20.50
2023-04-27T12:55:38.156Z,20.50
2023-04-27T12:58:04.981Z,20.40
2023-04-27T13:00:32.076Z,20.40
2023-04-27T13:02:58.805Z,20.40
2023-04-27T13:05:25.928Z,20.40
2023-04-27T13:07:52.776Z,20.40
2023-04-27T13:10:19.391Z,20.40
2023-04-27T13:12:46.008Z,20.40
2023-04-27T13:15:12.636Z,20.50
2023-04-27T13:17:40.299Z,20.60
2023-04-27T13:20:08.986Z,20.50
2023-04-27T13:22:35.758Z,20.50
2023-04-27T13:25:02.441Z,20.50
2023-04-27T13:27:29.283Z,20.40
2023-04-27T13:29:55.918Z,20.50
2023-04-27T13:32:22.758Z,20.50
2023-04-27T13:34:49.489Z,20.60
2023-04-27T13:37:16.652Z,20.60
2023-04-27T13:39:43.225Z,20.50
2023-04-27T13:42:09.842Z,20.50
2023-04-27T13:44:36.445Z,20.50
2023-04-27T13:47:03.098Z,20.40
2023-04-27T13:49:30.249Z,20.40
2023-04-27T13:51:56.920Z,20.50
2023-04-27T13:54:23.817Z,20.50
2023-04-27T13:56:50.441Z,20.50
2023-04-27T13:59:17.324Z,20.60
2023-04-27T14:01:44.124Z,20.70
2023-04-27T14:04:11.075Z,20.80
2023-04-27T14:06:37.890Z,20.80
2023-04-27T14:09:04.947Z,20.80
2023-04-27T14:11:37.187Z,20.80
2023-04-27T14:14:08.941Z,20.80
2023-04-27T14:16:35.720Z,20.80
2023-04-27T14:19:02.407Z,20.80
2023-04-27T14:21:29.182Z,20.80
2023-04-27T14:23:55.800Z,20.80
2023-04-27T14:26:22.402Z,21.00
2023-04-27T14:28:49.041Z,21.00
2023-04-27T14:31:15.946Z,21.00
2023-04-27T14:33:42.579Z,21.00
2023-04-27T14:36:09.455Z,21.00
2023-04-27T14:38:36.070Z,21.00
2023-04-27T14:41:06.596Z,21.00
2023-04-27T14:43:34.276Z,21.10
2023-04-27T14:46:11.954Z,20.90
2023-04-27T14:48:46.896Z,20.80
2023-04-27T14:51:16.092Z,20.80
2023-04-27T14:53:44.881Z,20.70
2023-04-27T14:56:11.866Z,20.60
2023-04-27T14:58:38.900Z,20.60
2023-04-27T15:01:07.219Z,20.60
2023-04-27T15:03:34.685Z,20.70
2023-04-27T15:06:02.597Z,20.80
2023-04-27T15:08:31.305Z,20.80
2023-04-27T15:10:59.942Z,20.80
2023-04-27T15:13:27.560Z,20.70
2023-04-27T15:15:58.477Z,20.70
2023-04-27T15:18:25.551Z,20.60
2023-04-27T15:20:56.360Z,20.60
2023-04-27T15:23:27.630Z,20.60
2023-04-27T15:25:56.435Z,20.60
2023-04-27T15:28:23.381Z,20.60
2023-04-27T15:30:50.339Z,20.60
2023-04-27T15:33:17.749Z,20.50
2023-04-27T15:35:44.564Z,20.50
2023-04-27T15:38:13.436Z,20.50
2023-04-27T15:40:40.466Z,20.50
2023-04-27T15:43:07.251Z,20.50
2023-04-27T15:45:33.873Z,20.50
2023-04-27T15:48:00.834Z,20.60
2023-04-27T15:50:28.733Z,20.60
2023-04-27T15:52:55.483Z,20.60
2023-04-27T15:55:22.259Z,20.60
2023-04-27T15:57:48.930Z,20.50
2023-04-27T16:00:16.911Z,20.60
2023-04-27T16:02:44.002Z,20.60
2023-04-27T16:05:11.097Z,20.60
2023-04-27T16:07:41.840Z,20.60
2023-04-27T16:10:09.366Z,20.60
2023-04-27T16:12:36.064Z,20.60
2023-04-27T16:15:02.793Z,20.60
2023-04-27T16:17:32.427Z,20.60
2023-04-27T16:19:59.233Z,20.60
2023-04-27T16:22:27.846Z,20.60
2023-04-27T16:24:54.514Z,20.50
2023-04-27T16:27:21.187Z,20.50
2023-04-27T16:29:47.785Z,20.50
2023-04-27T16:32:14.502Z,20.40
2023-04-27T16:34:41.460Z,20.50
2023-04-27T16:37:08.190Z,20.40
2023-04-27T16:39:34.775Z,20.40
2023-04-27T16:42:01.605Z,20.30
2023-04-27T16:44:28.322Z,20.40
2023-04-27T16:46:55.142Z,20.40
2023-04-27T16:49:21.854Z,20.30
2023-04-27T16:51:48.654Z,20.30
2023-04-27T16:54:18.218Z,20.30
2023-04-27T16:56:45.811Z,20.30
2023-04-27T16:59:12.824Z,20.30
2023-04-27T17:01:40.408Z,20.30
2023-04-27T17:04:07.354Z,20.30
2023-04-27T17:06:34.601Z,20.30
2023-04-27T17:09:01.548Z,20.30
2023-04-27T17:11:28.298Z,20.30
2023-04-27T17:13:54.931Z,20.30
2023-04-27T17:16:21.733Z,20.30
2023-04-27T17:18:48.781Z,20.30
2023-04-27T17:21:16.704Z,20.30
2023-04-27T17:23:46.361Z,20.30
2023-04-27T17:26:15.730Z,20.30
2023-04-27T17:28:42.915Z,20.30
2023-04-27T17:31:09.723Z,20.30
2023-04-27T17:33:38.215Z,20.30
2023-04-27T17:36:08.576Z,20.30
2023-04-27T17:38:35.654Z,20.20
2023-04-27T17:41:02.805Z,20.20
2023-04-27T17:43:29.430Z,20.20
2023-04-27T17:45:56.011Z,20.20
2023-04-27T17:48:22.741Z,20.20
2023-04-27T17:50:49.477Z,20.20
2023-04-27T17:53:16.056Z,20.20
2023-04-27T17:55:45.353Z,20.20
2023-04-27T17:58:12.057Z,20.20
2023-04-27T18:00:39.032Z,20.20
2023-04-27T18:03:06.065Z,20.10
2023-04-27T18:05:32.978Z,20.20
2023-04-27T18:07:59.607Z,20.20
2023-04-27T18:10:26.230Z,20.20
2023-04-27T18:12:52.989Z,20.10
2023-04-27T18:15:19.894Z,20.20
2023-04-27T18:17:46.545Z,20.20
2023-04-27T18:20:15.127Z,20.10
2023-04-27T18:22:41.921Z,20.10
2023-04-27T18:25:10.124Z,20.10
2023-04-27T18:27:39.623Z,20.10
2023-04-27T18:30:08.132Z,20.10
2023-04-27T18:32:35.374Z,20.20
2023-04-27T18:35:02.892Z,20.10
2023-04-27T18:37:29.585Z,20.10
2023-04-27T18:39:56.396Z,20.20
2023-04-27T18:42:23.764Z,20.10
2023-04-27T18:44:54.572Z,20.10
2023-04-27T18:47:21.282Z,20.10
2023-04-27T18:49:47.985Z,20.10
2023-04-27T18:52:14.575Z,20.10
2023-04-27T18:54:42.000Z,20.00
2023-04-27T18:57:08.831Z,20.10
2023-04-27T18:59:39.225Z,20.00
2023-04-27T19:02:06.992Z,20.00
2023-04-27T19:04:34.426Z,20.00
2023-04-27T19:07:02.339Z,20.00
2023-04-27T19:09:29.049Z,20.10
2023-04-27T19:12:02.980Z,20.10
2023-04-27T19:14:31.388Z,20.10
2023-04-27T19:16:58.052Z,20.10
2023-04-27T19:19:25.765Z,20.10
2023-04-27T19:21:52.509Z,20.00
2023-04-27T19:24:19.163Z,20.00
2023-04-27T19:26:46.766Z,20.10
2023-04-27T19:29:13.735Z,20.10
2023-04-27T19:31:41.055Z,20.10
2023-04-27T19:34:07.816Z,20.00
2023-04-27T19:36:34.424Z,20.00
2023-04-27T19:39:01.091Z,20.00
2023-04-27T19:41:27.985Z,20.00
2023-04-27T19:43:54.647Z,20.00
2023-04-27T19:46:21.331Z,20.00
2023-04-27T19:48:47.990Z,20.00
2023-04-27T19:51:14.596Z,20.00
2023-04-27T19:53:41.596Z,20.00
2023-04-27T19:56:08.213Z,20.00
2023-04-27T19:58:35.875Z,19.90
2023-04-27T20:01:03.725Z,20.00
2023-04-27T20:03:31.887Z,20.00
2023-04-27T20:05:59.310Z,19.90
2023-04-27T20:08:26.264Z,20.00
2023-04-27T20:10:53.926Z,19.90
2023-04-27T20:13:20.641Z,19.90
2023-04-27T20:15:47.327Z,19.90
2023-04-27T20:18:14.045Z,19.90
2023-04-27T20:20:41.832Z,19.90
2023-04-27T20:23:08.465Z,19.90
2023-04-27T20:25:35.106Z,19.90
2023-04-27T20:28:01.769Z,19.80
2023-04-27T20:30:28.486Z,19.90
2023-04-27T20:32:56.457Z,19.80
2023-04-27T20:35:24.038Z,19.80
2023-04-27T20:37:51.883Z,19.80
2023-04-27T20:40:18.993Z,19.80
2023-04-27T20:42:46.012Z,19.80
2023-04-27T20:45:13.064Z,19.80
2023-04-27T20:47:40.026Z,19.80
2023-04-27T20:50:08.915Z,19.80
2023-04-27T20:52:35.802Z,19.80
2023-04-27T20:55:03.572Z,19.80
2023-04-27T20:57:30.319Z,19.80
2023-04-27T20:59:56.952Z,19.80
2023-04-27T21:02:23.768Z,19.80
2023-04-27T21:04:50.749Z,19.80
2023-04-27T21:07:17.635Z,19.80
2023-04-27T21:09:44.374Z,19.80
2023-04-27T21:12:11.100Z,19.70
2023-04-27T21:14:37.730Z,19.80
2023-04-27T21:17:04.538Z,19.70
2023-04-27T21:19:31.319Z,19.70
2023-04-27T21:21:57.917Z,19.70
2023-04-27T21:24:24.964Z,19.70
2023-04-27T21:26:51.802Z,19.70
2023-04-27T21:29:18.462Z,19.70
2023-04-27T21:31:45.262Z,19.70
2023-04-27T21:34:11.918Z,19.70
2023-04-27T21:36:38.809Z,19.70
2023-04-27T21:39:05.792Z,19.70
2023-04-27T21:41:34.511Z,19.70
2023-04-27T21:44:01.203Z,19.70
2023-04-27T21:46:27.896Z,19.70
2023-04-27T21:48:54.509Z,19.70
2023-04-27T21:51:21.137Z,19.70
2023-04-27T21:53:47.759Z,19.60
2023-04-27T21:56:14.430Z,19.60
2023-04-27T21:58:41.066Z,19.60
2023-04-27T22:01:07.711Z,19.60
2023-04-27T22:03:34.480Z,19.60
2023-04-27T22:06:01.326Z,19.60
2023-04-27T22:08:27.914Z,19.60
2023-04-27T22:10:55.973Z,19.60
2023-04-27T22:13:22.705Z,19.60
2023-04-27T22:15:49.338Z,19.60
2023-04-27T22:18:16.075Z,19.60
2023-04-27T22:20:43.206Z,19.60
2023-04-27T22:23:10.224Z,19.60
2023-04-27T22:25:37.196Z,19.60
2023-04-27T22:28:03.916Z,19.60
2023-04-27T22:30:31.109Z,19.60
2023-04-27T22:32:57.927Z,19.50
2023-04-27T22:35:27.615Z,19.60
2023-04-27T22:37:59.242Z,19.60
2023-04-27T22:40:26.390Z,19.60
2023-04-27T22:42:53.876Z,19.60
2023-04-27T22:45:21.245Z,19.60
2023-04-27T22:47:49.096Z,19.60
2023-04-27T22:50:16.354Z,19.60
2023-04-27T22:52:43.097Z,19.60
2023-04-27T22:55:12.765Z,19.60
2023-04-27T22:57:40.142Z,19.60
2023-04-27T23:00:11.333Z,19.50
2023-04-27T23:02:41.998Z,19.50
2023-04-27T23:05:10.668Z,19.50
2023-04-27T23:07:37.619Z,19.50
2023-04-27T23:10:05.760Z,19.50
2023-04-27T23:12:32.948Z,19.60
2023-04-27T23:14:59.819Z,19.50
2023-04-27T23:17:30.520Z,19.50
2023-04-27T23:20:01.447Z,19.50
2023-04-27T23:22:28.332Z,19.50
2023-04-27T23:24:55.194Z,19.50
2023-04-27T23:27:23.442Z,19.50
2023-04-27T23:29:51.238Z,19.50
2023-04-27T23:32:17.969Z,19.50
2023-04-27T23:34:44.594Z,19.50
2023-04-27T23:37:11.208Z,19.50
2023-04-27T23:39:38.242Z,19.50
2023-04-27T23:42:05.187Z,19.50
2023-04-27T23:44:31.967Z,19.50
2023-04-27T23:46:58.595Z,19.50
2023-04-27T23:49:25.220Z,19.50
2023-04-27T23:51:52.882Z,19.50
2023-04-27T23:54:19.489Z,19.50
2023-04-27T23:56:46.116Z,19.50
2023-04-27T23:59:14.805Z,19.50
